Portada
METAR-TAF:

METAR-TAF

Aeropuertos :

Aeropuerto Internacional de Uzhgorod

Úzhgorod, Ucrania

latitud: 48-38-05N, longitud: 022-15-53E, altitud: 117 m

Observación

El informe se hizo hace 12 horas y 47 minutos, a las 13:00 UTC
Viento 4 kt con dirección variable
Temperatura 33°C
Humedad 39%
Presión 1014 hPa
Visibilidad 10 km o más

METAR: UKLU 271300Z VRB02MPS 9999 NSC 33/17 Q1014 R10/090070 NOSIG

Hora: 04:47 (01:47 UTC)

Pronóstico

El informe se hizo hace 14 horas y 36 minutos, a las 11:11 UTC
Pronóstico válido del 27 a las 12 UTC al 27 a las 21 UTC
Viento 6 kt del sur-suroeste
Visibilidad 10 km o más
Temporalmente
del 27 a las 12 UTC al 27 a las 18 UTC
Viento 10 kt con dirección variable con ráfagas de 19 kt
Nubes dispersas a una altura de 4000 ft, Cumulonimbus.

TAF: UKLU 271111Z 2712/2721 20003MPS 9999 NSC TX32/2714Z TN24/2721Z TEMPO 2712/2718 VRB05G10MPS SCT040CB

Observaciones y pronósticos meteorológicos de más de 4000 aeropuertos (mensajes METAR y TAF).

Los puntos amarillos y rojos representan las estaciones disponibles.

Ponga el ratón en el punto deseado para ver el nombre de la estación.

Haga clic para ver las observaciones y los pronósticos meteorológicos.

Para cambiar el mapa : haga clic en los botones verdes con una cruz de color negro para hacer un zoom, en el botón verde con un guión para alejar o en las flechas verdes para mapas adyacentes.


METAR-TAF: